ストックホルム/アーランダ の空港の天気 - METARとTAF

ストックホルム・アーランダ空港 ( ESSA / ARN ) - スウェーデン ストックホルム
飛行場実況気象(Metar)
観測時間08/18 04:20 CEST (08/18 02:20 UTC)
風向・風速南南東 5m/s
視程10km以上
天気現象
全天の8割程度の雲 雲底高度 270m
気温15℃
湿度100%
気圧1006hPa
METARESSA 180220Z 16009KT 9999 BKN009 15/15 Q1006 NOSIG
過去の天気等 Google飛行場航空写真 Wunderground天気予報

過去48時間のMETAR

飛行場予報(TAF)
発表時間: 8/18 02:00 CEST (8/18 00:00 UTC)
予報対象時間: 18日2時 CEST ~ 19日2時 CEST
風向・風速南 6m/s
視程8000m
天気現象弱い雨
全天の8割程度の雲 雲底高度 610m
18日2時 CEST ~ 18日7時 CEST に一時的に
視程4000m
天気現象しゅう雨
全天の8割程度の雲 雲底高度 210m
全天の8割程度の積乱雲 雲底高度 910m
18日7時 CEST から 確率 40% で
天気現象しゅう雨
全天の8割程度の雲 雲底高度 300m
全天の8割程度の積乱雲 雲底高度 760m
TAF AMD ESSA 180000Z 1800/1824 18011KT 8000 -RA BKN020
TEMPO 1800/1805 4000 SHRA BKN007 BKN030CB
PROB40 1805/1824 SHRA BKN010 BKN025CB